createdAt,value
2018-07-03T00:00:17.321Z,82.79
2018-07-03T00:01:17.228Z,82.60
2018-07-03T00:02:17.143Z,82.60
2018-07-03T00:03:17.064Z,83.08
2018-07-03T00:04:16.976Z,82.70
2018-07-03T00:05:16.919Z,82.89
2018-07-03T00:06:16.830Z,83.17
2018-07-03T00:07:16.747Z,83.46
2018-07-03T00:08:16.667Z,83.84
2018-07-03T00:09:16.582Z,83.84
2018-07-03T00:10:16.522Z,83.84
2018-07-03T00:11:16.419Z,83.56
2018-07-03T00:12:16.345Z,83.65
2018-07-03T00:13:16.253Z,83.65
2018-07-03T00:14:16.177Z,83.56
2018-07-03T00:15:16.107Z,84.23
2018-07-03T00:16:16.020Z,83.84
2018-07-03T00:17:15.941Z,84.13
2018-07-03T00:18:15.852Z,84.23
2018-07-03T00:19:15.781Z,84.13
2018-07-03T00:20:15.705Z,84.03
2018-07-03T00:21:15.622Z,84.13
2018-07-03T00:22:15.546Z,84.13
2018-07-03T00:23:15.452Z,83.99
2018-07-03T00:24:15.378Z,83.94
2018-07-03T00:25:15.306Z,83.80
2018-07-03T00:26:15.221Z,84.09
2018-07-03T00:27:15.147Z,83.90
2018-07-03T00:28:15.059Z,83.80
2018-07-03T00:29:14.968Z,84.03
2018-07-03T00:30:14.893Z,83.90
2018-07-03T00:31:14.811Z,83.90
2018-07-03T00:32:14.739Z,83.99
2018-07-03T00:33:14.657Z,83.90
2018-07-03T00:34:14.573Z,84.23
2018-07-03T00:35:14.492Z,83.90
2018-07-03T00:36:14.404Z,84.23
2018-07-03T00:37:14.346Z,84.09
2018-07-03T00:38:14.249Z,84.03
2018-07-03T00:39:14.170Z,84.23
2018-07-03T00:40:14.083Z,84.23
2018-07-03T00:41:14.011Z,83.51
2018-07-03T00:42:13.943Z,83.51
2018-07-03T00:43:13.847Z,83.42
2018-07-03T00:44:13.772Z,83.51
2018-07-03T00:45:13.681Z,83.51
2018-07-03T00:46:13.605Z,83.80
2018-07-03T00:47:13.526Z,83.51
2018-07-03T00:48:13.450Z,83.80
2018-07-03T00:49:13.357Z,83.61
2018-07-03T00:50:13.283Z,83.61
2018-07-03T00:51:13.205Z,83.61
2018-07-03T00:52:13.119Z,83.61
2018-07-03T00:53:13.036Z,83.70
2018-07-03T00:54:12.959Z,83.51
2018-07-03T00:55:12.896Z,83.90
2018-07-03T00:56:12.796Z,84.19
2018-07-03T00:57:12.731Z,83.70
2018-07-03T00:58:12.638Z,83.70
2018-07-03T00:59:12.561Z,83.70
2018-07-03T01:00:12.474Z,83.90
2018-07-03T01:01:12.395Z,83.70
2018-07-03T01:02:12.308Z,83.99
2018-07-03T01:03:12.236Z,83.23
2018-07-03T01:04:12.161Z,83.61
2018-07-03T01:05:12.071Z,83.42
2018-07-03T01:06:11.995Z,83.61
2018-07-03T01:07:11.910Z,83.70
2018-07-03T01:08:11.835Z,83.90
2018-07-03T01:09:11.752Z,83.61
2018-07-03T01:10:11.678Z,83.23
2018-07-03T01:11:11.583Z,83.61
2018-07-03T01:12:11.520Z,83.90
2018-07-03T01:13:11.426Z,83.61
2018-07-03T01:14:11.349Z,83.61
2018-07-03T01:15:11.266Z,83.51
2018-07-03T01:16:11.189Z,83.80
2018-07-03T01:17:11.110Z,83.70
2018-07-03T01:18:11.024Z,83.51
2018-07-03T01:19:10.952Z,84.38
2018-07-03T01:20:10.865Z,83.95
2018-07-03T01:21:10.786Z,84.09
2018-07-03T01:22:10.707Z,83.99
2018-07-03T01:23:10.622Z,84.38
2018-07-03T01:24:10.535Z,84.19
2018-07-03T01:25:10.465Z,84.05
2018-07-03T01:26:10.376Z,84.23
2018-07-03T01:27:10.302Z,83.76
2018-07-03T01:28:10.225Z,83.86
2018-07-03T01:29:10.142Z,83.90
2018-07-03T01:30:10.069Z,83.95
2018-07-03T01:31:09.977Z,83.76
2018-07-03T01:32:09.903Z,83.76
2018-07-03T01:33:09.811Z,83.51
2018-07-03T01:34:09.738Z,83.28
2018-07-03T01:35:09.653Z,83.47
2018-07-03T01:36:09.595Z,83.80
2018-07-03T01:37:09.486Z,83.18
2018-07-03T01:38:09.411Z,83.18
2018-07-03T01:39:09.326Z,83.00
2018-07-03T01:40:09.251Z,83.04
2018-07-03T01:41:09.169Z,83.04
2018-07-03T01:42:09.094Z,82.94
2018-07-03T01:43:09.000Z,83.00
2018-07-03T01:44:08.926Z,82.81
2018-07-03T01:45:08.843Z,82.94
2018-07-03T01:46:08.766Z,82.94
2018-07-03T01:47:08.694Z,82.90
2018-07-03T01:48:08.608Z,82.61
2018-07-03T01:49:08.527Z,82.81
2018-07-03T01:50:08.439Z,82.37
2018-07-03T01:51:08.365Z,82.32
2018-07-03T01:52:08.277Z,82.81
2018-07-03T01:53:08.207Z,82.81
2018-07-03T01:54:08.119Z,82.90
2018-07-03T01:55:08.042Z,83.09
2018-07-03T01:56:07.956Z,83.09
2018-07-03T01:57:07.876Z,83.28
2018-07-03T01:58:07.788Z,83.38
2018-07-03T01:59:07.719Z,83.09
2018-07-03T02:00:07.633Z,83.86
2018-07-03T02:01:07.553Z,83.57
2018-07-03T02:02:07.467Z,83.18
2018-07-03T02:03:07.389Z,83.28
2018-07-03T02:04:07.314Z,83.38
2018-07-03T02:05:07.231Z,83.76
2018-07-03T02:06:07.156Z,83.57
2018-07-03T02:07:07.064Z,83.57
2018-07-03T02:08:06.989Z,83.47
2018-07-03T02:09:06.907Z,83.47
2018-07-03T02:10:06.831Z,83.57
2018-07-03T02:11:06.745Z,83.67
2018-07-03T02:12:06.671Z,84.23
2018-07-03T02:13:06.580Z,84.23
2018-07-03T02:14:06.506Z,83.76
2018-07-03T02:15:06.421Z,83.62
2018-07-03T02:16:06.344Z,83.62
2018-07-03T02:17:06.253Z,83.95
2018-07-03T02:18:06.180Z,83.76
2018-07-03T02:19:06.092Z,83.81
2018-07-03T02:20:06.018Z,84.29
2018-07-03T02:21:05.935Z,84.29
2018-07-03T02:22:05.860Z,84.43
2018-07-03T02:23:05.780Z,83.81
2018-07-03T02:24:05.693Z,83.91
2018-07-03T02:25:05.612Z,84.10
2018-07-03T02:26:05.535Z,84.20
2018-07-03T02:27:05.446Z,84.10
2018-07-03T02:28:05.384Z,84.67
2018-07-03T02:29:05.279Z,84.67
2018-07-03T02:30:05.206Z,84.67
2018-07-03T02:31:05.136Z,84.58
2018-07-03T02:32:05.048Z,85.25
2018-07-03T02:33:04.956Z,84.96
2018-07-03T02:34:04.885Z,84.77
2018-07-03T02:35:04.793Z,84.86
2018-07-03T02:36:04.718Z,84.96
2018-07-03T02:37:04.635Z,85.15
2018-07-03T02:38:04.560Z,85.15
2018-07-03T02:39:04.521Z,84.96
2018-07-03T02:40:04.406Z,84.77
2018-07-03T02:41:04.311Z,85.25
2018-07-03T02:42:04.236Z,85.34
2018-07-03T02:43:04.150Z,85.15
2018-07-03T02:44:04.075Z,85.44
2018-07-03T02:45:03.984Z,85.34
2018-07-03T02:46:03.908Z,85.34
2018-07-03T02:47:03.823Z,84.96
2018-07-03T02:48:03.749Z,85.44
2018-07-03T02:49:03.657Z,85.34
2018-07-03T02:50:03.582Z,85.21
2018-07-03T02:51:03.498Z,85.63
2018-07-03T02:52:03.424Z,85.05
2018-07-03T02:53:03.340Z,85.25
2018-07-03T02:54:03.263Z,85.34
2018-07-03T02:55:03.173Z,85.44
2018-07-03T02:56:03.094Z,85.05
2018-07-03T02:57:03.012Z,85.34
2018-07-03T02:58:02.938Z,85.05
2018-07-03T02:59:02.864Z,85.34
2018-07-03T03:00:02.783Z,85.15
2018-07-03T03:01:02.686Z,85.15
2018-07-03T03:02:02.611Z,84.67
2018-07-03T03:03:02.525Z,84.96
2018-07-03T03:04:02.451Z,84.86
2018-07-03T03:05:02.361Z,84.96
2018-07-03T03:06:02.287Z,84.58
2018-07-03T03:07:02.198Z,84.96
2018-07-03T03:08:02.124Z,84.86
2018-07-03T03:09:02.041Z,84.48
2018-07-03T03:10:01.966Z,85.05
2018-07-03T03:11:01.887Z,84.96
2018-07-03T03:12:01.803Z,84.20
2018-07-03T03:13:01.716Z,84.77
2018-07-03T03:14:01.641Z,84.58
2018-07-03T03:15:01.551Z,84.96
2018-07-03T03:16:01.480Z,84.58
2018-07-03T03:17:01.385Z,84.77
2018-07-03T03:18:01.310Z,84.29
2018-07-03T03:19:01.228Z,83.81
2018-07-03T03:20:01.154Z,83.81
2018-07-03T03:21:01.063Z,83.91
2018-07-03T03:22:00.989Z,83.43
2018-07-03T03:23:00.899Z,83.47
2018-07-03T03:24:00.823Z,83.09
2018-07-03T03:25:00.752Z,83.00
2018-07-03T03:26:00.665Z,83.38
2018-07-03T03:27:00.576Z,83.09
2018-07-03T03:28:00.500Z,83.00
2018-07-03T03:29:00.416Z,83.34
2018-07-03T03:30:00.341Z,83.47
2018-07-03T03:31:00.255Z,82.81
2018-07-03T03:32:00.194Z,82.90
2018-07-03T03:33:00.091Z,83.00
2018-07-03T03:34:00.019Z,82.61
2018-07-03T03:34:59.928Z,82.32
2018-07-03T03:35:59.854Z,82.52
2018-07-03T03:36:59.764Z,82.23
2018-07-03T03:37:59.687Z,82.14
2018-07-03T03:38:59.601Z,82.14
2018-07-03T03:39:59.529Z,82.14
2018-07-03T03:40:59.459Z,81.56
2018-07-03T03:41:59.369Z,81.56
2018-07-03T03:42:59.290Z,81.47
2018-07-03T03:43:59.202Z,81.95
2018-07-03T03:44:59.121Z,81.47
2018-07-03T03:45:59.044Z,81.85
2018-07-03T03:46:58.957Z,82.04
2018-07-03T03:47:58.893Z,82.32
2018-07-03T03:48:58.789Z,82.32
2018-07-03T03:49:58.715Z,82.14
2018-07-03T03:50:58.635Z,82.32
2018-07-03T03:51:58.557Z,81.56
2018-07-03T03:52:58.466Z,82.42
2018-07-03T03:53:58.391Z,81.76
2018-07-03T03:54:58.303Z,81.76
2018-07-03T03:55:58.227Z,81.66
2018-07-03T03:56:58.155Z,82.23
2018-07-03T03:57:58.068Z,81.27
2018-07-03T03:58:57.992Z,81.85
2018-07-03T03:59:57.904Z,81.09
2018-07-03T04:00:57.876Z,80.51
2018-07-03T04:01:57.747Z,81.47
2018-07-03T04:02:57.669Z,80.41
2018-07-03T04:03:57.583Z,81.27
2018-07-03T04:04:57.504Z,81.03
2018-07-03T04:05:57.415Z,81.32
2018-07-03T04:06:57.347Z,81.51
2018-07-03T04:07:57.259Z,81.41
2018-07-03T04:08:57.180Z,81.70
2018-07-03T04:09:57.094Z,80.55
2018-07-03T04:10:57.018Z,80.74
2018-07-03T04:11:56.928Z,80.17
2018-07-03T04:12:56.858Z,80.17
2018-07-03T04:13:56.771Z,80.74
2018-07-03T04:14:56.693Z,79.88
2018-07-03T04:15:56.605Z,79.60
2018-07-03T04:16:56.533Z,79.64
2018-07-03T04:17:56.446Z,79.54
2018-07-03T04:18:56.373Z,79.41
2018-07-03T04:19:56.299Z,79.16
2018-07-03T04:20:56.206Z,79.25
2018-07-03T04:21:56.131Z,79.83
2018-07-03T04:22:56.047Z,79.83
2018-07-03T04:23:55.971Z,78.58
2018-07-03T04:24:55.879Z,79.06
2018-07-03T04:25:55.806Z,77.72
2018-07-03T04:26:55.721Z,78.20
2018-07-03T04:27:55.645Z,78.39
2018-07-03T04:28:55.562Z,78.68
2018-07-03T04:29:55.485Z,78.78
2018-07-03T04:30:55.407Z,79.29
2018-07-03T04:31:55.321Z,77.86
2018-07-03T04:32:55.250Z,77.38
2018-07-03T04:33:55.161Z,77.67
2018-07-03T04:34:55.085Z,77.48
2018-07-03T04:35:55.000Z,77.51
2018-07-03T04:36:54.919Z,77.51
2018-07-03T04:37:54.831Z,75.98
2018-07-03T04:38:54.775Z,75.60
2018-07-03T04:39:54.676Z,75.02
2018-07-03T04:40:54.598Z,73.63
2018-07-03T04:41:54.522Z,69.93
2018-07-03T04:42:54.431Z,68.33
2018-07-03T04:43:54.369Z,66.35
2018-07-03T04:44:54.277Z,64.37
2018-07-03T04:45:54.201Z,64.02
2018-07-03T04:46:54.171Z,63.09
2018-07-03T04:47:54.032Z,60.69
2018-07-03T04:48:53.974Z,60.43
2018-07-03T04:49:53.874Z,59.38
2018-07-03T04:50:53.807Z,59.31
2018-07-03T04:51:53.714Z,57.87
2018-07-03T04:52:53.634Z,57.77
2018-07-03T04:53:53.560Z,56.45
2018-07-03T04:54:53.475Z,57.22
2018-07-03T04:55:53.404Z,56.16
2018-07-03T04:56:53.321Z,55.40
2018-07-03T04:57:53.233Z,55.52
2018-07-03T04:58:53.165Z,55.23
2018-07-03T04:59:53.085Z,55.13
2018-07-03T05:00:53.016Z,53.88
2018-07-03T05:01:52.928Z,54.08
2018-07-03T05:02:52.847Z,54.85
2018-07-03T05:03:52.771Z,55.78
2018-07-03T05:04:52.701Z,57.48
2018-07-03T05:05:52.613Z,58.45
2018-07-03T05:06:52.540Z,58.03
2018-07-03T05:07:52.465Z,57.93
2018-07-03T05:08:52.374Z,58.22
2018-07-03T05:09:52.299Z,58.13
2018-07-03T05:10:52.227Z,58.80
2018-07-03T05:11:52.152Z,58.89
2018-07-03T05:12:52.060Z,59.28
2018-07-03T05:13:51.986Z,60.11
2018-07-03T05:14:51.911Z,62.13
2018-07-03T05:15:51.836Z,61.08
2018-07-03T05:16:51.754Z,60.38
2018-07-03T05:17:51.687Z,61.33
2018-07-03T05:18:51.601Z,62.19
2018-07-03T05:19:51.514Z,62.19
2018-07-03T05:20:51.455Z,61.91
2018-07-03T05:21:51.367Z,61.72
2018-07-03T05:22:51.290Z,62.01
2018-07-03T05:23:51.203Z,61.62
2018-07-03T05:24:51.127Z,60.85
2018-07-03T05:25:51.050Z,62.01
2018-07-03T05:26:50.981Z,61.62
2018-07-03T05:27:50.892Z,62.58
2018-07-03T05:28:50.814Z,61.72
2018-07-03T05:29:50.739Z,61.91
2018-07-03T05:30:50.649Z,62.01
2018-07-03T05:31:50.575Z,61.62
2018-07-03T05:32:50.504Z,62.68
2018-07-03T05:33:50.430Z,62.01
2018-07-03T05:34:50.337Z,62.01
2018-07-03T05:35:50.275Z,62.29
2018-07-03T05:36:50.193Z,63.06
2018-07-03T05:37:50.105Z,63.45
2018-07-03T05:38:50.033Z,64.40
2018-07-03T05:39:49.957Z,64.22
2018-07-03T05:40:49.878Z,64.12
2018-07-03T05:41:49.790Z,62.77
2018-07-03T05:42:49.758Z,62.10
2018-07-03T05:43:49.643Z,62.10
2018-07-03T05:44:49.554Z,61.91
2018-07-03T05:45:49.477Z,62.77
2018-07-03T05:46:49.405Z,61.81
2018-07-03T05:47:49.330Z,62.58
2018-07-03T05:48:49.245Z,62.58
2018-07-03T05:49:49.173Z,62.39
2018-07-03T05:50:49.091Z,62.23
2018-07-03T05:51:49.005Z,62.39
2018-07-03T05:52:48.934Z,62.58
2018-07-03T05:53:48.859Z,62.42
2018-07-03T05:54:48.770Z,61.94
2018-07-03T05:55:48.711Z,61.62
2018-07-03T05:56:48.616Z,60.75
2018-07-03T05:57:48.543Z,61.81
2018-07-03T05:58:48.460Z,62.13
2018-07-03T05:59:48.384Z,62.61
2018-07-03T06:00:48.306Z,62.52
2018-07-03T06:01:48.230Z,62.23
2018-07-03T06:02:48.141Z,62.61
2018-07-03T06:03:48.070Z,62.61
2018-07-03T06:04:47.995Z,61.84
2018-07-03T06:05:47.908Z,61.84
2018-07-03T06:06:47.835Z,61.65
2018-07-03T06:07:47.765Z,62.23
2018-07-03T06:08:47.667Z,61.75
2018-07-03T06:09:47.592Z,61.94
2018-07-03T06:10:47.521Z,62.35
2018-07-03T06:11:47.444Z,62.13
2018-07-03T06:12:47.365Z,61.87
2018-07-03T06:13:47.286Z,62.07
2018-07-03T06:14:47.244Z,61.87
2018-07-03T06:15:47.132Z,61.11
2018-07-03T06:16:47.048Z,60.72
2018-07-03T06:17:46.971Z,61.01
2018-07-03T06:18:46.900Z,60.72
2018-07-03T06:19:46.824Z,61.20
2018-07-03T06:20:46.733Z,61.01
2018-07-03T06:21:46.659Z,60.91
2018-07-03T06:22:46.603Z,60.46
2018-07-03T06:23:46.500Z,60.75
2018-07-03T06:24:46.420Z,60.85
2018-07-03T06:25:46.358Z,60.75
2018-07-03T06:26:46.268Z,60.94
2018-07-03T06:27:46.182Z,60.27
2018-07-03T06:28:46.122Z,60.85
2018-07-03T06:29:46.037Z,60.27
2018-07-03T06:30:45.960Z,60.27
2018-07-03T06:31:45.872Z,59.89
2018-07-03T06:32:45.801Z,60.08
2018-07-03T06:33:45.725Z,59.92
2018-07-03T06:34:45.668Z,60.01
2018-07-03T06:35:45.713Z,60.27
2018-07-03T06:36:45.482Z,60.30
2018-07-03T06:37:45.408Z,59.92
2018-07-03T06:38:45.336Z,59.34
2018-07-03T06:39:45.262Z,59.63
2018-07-03T06:40:45.170Z,59.63
2018-07-03T06:41:45.095Z,59.92
2018-07-03T06:42:45.024Z,59.53
2018-07-03T06:43:44.947Z,59.44
2018-07-03T06:44:44.924Z,59.15
2018-07-03T06:45:44.790Z,58.18
2018-07-03T06:46:44.708Z,59.34
2018-07-03T06:47:44.633Z,58.98
2018-07-03T06:48:44.552Z,58.70
2018-07-03T06:49:44.475Z,58.60
2018-07-03T06:50:44.402Z,58.31
2018-07-03T06:51:44.374Z,59.08
2018-07-03T06:52:44.300Z,58.02
2018-07-03T06:53:44.165Z,57.92
2018-07-03T06:54:44.090Z,57.25
2018-07-03T06:55:44.017Z,55.83
2018-07-03T06:56:43.936Z,55.93
2018-07-03T06:57:43.862Z,55.35
2018-07-03T06:58:43.785Z,56.70
2018-07-03T06:59:43.697Z,56.22
2018-07-03T07:00:43.627Z,57.18
2018-07-03T07:01:43.551Z,57.12
2018-07-03T07:02:43.475Z,56.05
2018-07-03T07:03:43.400Z,56.15
2018-07-03T07:04:43.328Z,55.77
2018-07-03T07:05:43.242Z,56.25
2018-07-03T07:06:43.164Z,55.96
2018-07-03T07:07:43.090Z,55.19
2018-07-03T07:08:43.094Z,53.84
2018-07-03T07:09:42.997Z,54.06
2018-07-03T07:10:42.854Z,53.84
2018-07-03T07:11:42.780Z,53.77
2018-07-03T07:12:42.700Z,53.67
2018-07-03T07:13:42.626Z,53.96
2018-07-03T07:14:42.549Z,52.61
2018-07-03T07:15:42.474Z,52.23
2018-07-03T07:16:42.394Z,51.77
2018-07-03T07:17:42.316Z,51.77
2018-07-03T07:18:42.250Z,51.58
2018-07-03T07:19:42.164Z,51.77
2018-07-03T07:20:42.093Z,50.90
2018-07-03T07:21:42.018Z,50.71
2018-07-03T07:22:41.948Z,50.90
2018-07-03T07:23:41.867Z,50.71
2018-07-03T07:24:41.775Z,50.45
2018-07-03T07:25:41.714Z,50.45
2018-07-03T07:26:41.629Z,49.96
2018-07-03T07:27:41.555Z,50.26
2018-07-03T07:28:41.476Z,50.76
2018-07-03T07:29:41.401Z,49.99
2018-07-03T07:30:41.330Z,48.16
2018-07-03T07:31:41.253Z,47.77
2018-07-03T07:32:41.182Z,48.16
2018-07-03T07:33:41.109Z,47.87
2018-07-03T07:34:41.026Z,48.83
2018-07-03T07:35:40.954Z,48.28
2018-07-03T07:36:40.869Z,47.80
2018-07-03T07:37:40.794Z,47.81
2018-07-03T07:38:40.720Z,46.37
2018-07-03T07:39:40.646Z,45.28
2018-07-03T07:40:40.567Z,45.79
2018-07-03T07:41:40.494Z,46.37
2018-07-03T07:42:40.458Z,45.57
2018-07-03T07:43:40.345Z,46.66
2018-07-03T07:44:40.272Z,46.64
2018-07-03T07:45:40.194Z,45.50
2018-07-03T07:46:40.116Z,44.84
2018-07-03T07:47:40.047Z,43.80
2018-07-03T07:48:39.970Z,43.34
2018-07-03T07:49:39.896Z,41.83
2018-07-03T07:50:39.818Z,40.40
2018-07-03T07:51:39.755Z,39.36
2018-07-03T07:52:39.684Z,38.71
2018-07-03T07:53:39.609Z,38.23
2018-07-03T07:54:39.532Z,39.41
2018-07-03T07:55:39.457Z,38.57
2018-07-03T07:56:39.378Z,38.01
2018-07-03T07:57:39.316Z,37.62
2018-07-03T07:58:39.247Z,36.26
2018-07-03T07:59:39.171Z,35.58
2018-07-03T08:00:39.106Z,35.89
2018-07-03T08:01:39.041Z,34.72
2018-07-03T08:02:38.957Z,34.74
2018-07-03T08:03:38.894Z,34.47
2018-07-03T08:04:38.823Z,34.56
2018-07-03T08:05:38.762Z,34.66
2018-07-03T08:06:38.712Z,34.53
2018-07-03T08:07:38.618Z,33.98
2018-07-03T08:08:38.547Z,34.29
2018-07-03T08:09:38.483Z,33.02
2018-07-03T08:10:38.421Z,33.04
2018-07-03T08:11:38.350Z,32.16
2018-07-03T08:12:38.281Z,32.82
2018-07-03T08:13:38.207Z,32.06
2018-07-03T08:14:38.145Z,31.77
2018-07-03T08:15:38.083Z,30.71
2018-07-03T08:16:38.013Z,29.72
2018-07-03T08:17:37.949Z,30.98
2018-07-03T08:18:37.885Z,31.07
2018-07-03T08:19:37.810Z,31.17
2018-07-03T08:20:37.744Z,31.74
2018-07-03T08:21:37.680Z,31.93
2018-07-03T08:22:37.612Z,31.09
2018-07-03T08:23:37.551Z,31.01
2018-07-03T08:24:37.483Z,30.54
2018-07-03T08:25:37.408Z,30.15
2018-07-03T08:26:37.365Z,30.52
2018-07-03T08:27:37.281Z,30.29
2018-07-03T08:28:37.224Z,31.35
2018-07-03T08:29:37.148Z,31.37
2018-07-03T08:30:37.094Z,30.80
2018-07-03T08:31:37.025Z,30.81
2018-07-03T08:32:36.961Z,30.99
2018-07-03T08:33:36.899Z,29.75
2018-07-03T08:34:36.828Z,28.61
2018-07-03T08:35:36.763Z,28.61
2018-07-03T08:36:36.697Z,27.42
2018-07-03T08:37:36.634Z,25.85
2018-07-03T08:38:36.566Z,26.41
2018-07-03T08:39:36.500Z,27.22
2018-07-03T08:40:36.432Z,27.02
2018-07-03T08:41:36.370Z,26.15
2018-07-03T08:42:36.309Z,25.27
2018-07-03T08:43:36.235Z,25.98
2018-07-03T08:44:36.177Z,26.81
2018-07-03T08:45:36.114Z,27.12
2018-07-03T08:46:36.048Z,26.35
2018-07-03T08:47:35.989Z,27.42
2018-07-03T08:48:35.916Z,27.25
2018-07-03T08:49:35.853Z,25.99
2018-07-03T08:50:35.789Z,26.54
2018-07-03T08:51:35.767Z,26.84
2018-07-03T08:52:35.659Z,27.54
2018-07-03T08:53:35.596Z,25.86
2018-07-03T08:54:35.540Z,26.92
2018-07-03T08:55:35.467Z,27.12
2018-07-03T08:56:35.400Z,26.91
2018-07-03T08:57:35.337Z,26.90
2018-07-03T08:58:35.275Z,27.51
2018-07-03T08:59:35.210Z,27.22
2018-07-03T09:00:35.152Z,27.50
2018-07-03T09:01:35.090Z,27.45
2018-07-03T09:02:35.012Z,28.33
2018-07-03T09:03:34.948Z,28.26
2018-07-03T09:04:34.890Z,27.00
2018-07-03T09:05:34.828Z,26.13
2018-07-03T09:06:34.766Z,24.49
2018-07-03T09:07:34.705Z,24.40
2018-07-03T09:08:34.637Z,24.51
2018-07-03T09:09:34.576Z,25.31
2018-07-03T09:10:34.514Z,24.60
2018-07-03T09:11:34.453Z,24.40
2018-07-03T09:12:34.374Z,24.90
2018-07-03T09:13:34.311Z,25.89
2018-07-03T09:14:34.251Z,25.90
2018-07-03T09:15:34.190Z,25.62
2018-07-03T09:16:34.132Z,25.83
2018-07-03T09:17:34.068Z,24.14
2018-07-03T09:18:33.999Z,23.83
2018-07-03T09:19:33.936Z,23.93
2018-07-03T09:20:33.878Z,24.41
2018-07-03T09:21:33.805Z,24.22
2018-07-03T09:22:33.744Z,25.20
2018-07-03T09:23:33.748Z,24.88
2018-07-03T09:24:33.628Z,24.22
2018-07-03T09:25:33.552Z,23.25
2018-07-03T09:26:33.491Z,23.85
2018-07-03T09:27:33.430Z,24.52
2018-07-03T09:28:33.365Z,24.16
2018-07-03T09:29:33.301Z,24.55
2018-07-03T09:30:33.243Z,25.05
2018-07-03T09:31:33.178Z,24.54
2018-07-03T09:32:33.120Z,24.36
2018-07-03T09:33:33.057Z,24.52
2018-07-03T09:34:32.990Z,25.81
2018-07-03T09:35:32.929Z,25.23
2018-07-03T09:36:32.859Z,25.63
2018-07-03T09:37:32.796Z,25.06
2018-07-03T09:38:32.731Z,23.88
2018-07-03T09:39:32.681Z,23.80
2018-07-03T09:40:32.610Z,24.40
2018-07-03T09:41:32.539Z,24.01
2018-07-03T09:42:32.533Z,23.63
2018-07-03T09:43:32.421Z,23.61
2018-07-03T09:44:32.355Z,23.98
2018-07-03T09:45:32.292Z,25.42
2018-07-03T09:46:32.228Z,25.62
2018-07-03T09:47:32.179Z,24.85
2018-07-03T09:48:32.107Z,23.79
2018-07-03T09:49:32.048Z,23.87
2018-07-03T09:50:31.979Z,23.86
2018-07-03T09:51:31.916Z,24.15
2018-07-03T09:52:31.857Z,24.07
2018-07-03T09:53:31.795Z,22.87
2018-07-03T09:54:31.739Z,23.26
2018-07-03T09:55:31.674Z,24.46
2018-07-03T09:56:31.606Z,25.02
2018-07-03T09:57:31.544Z,24.42
2018-07-03T09:58:31.496Z,24.02
2018-07-03T09:59:31.434Z,23.83
2018-07-03T10:00:31.369Z,24.13
2018-07-03T10:01:31.311Z,24.10
2018-07-03T10:02:31.245Z,24.98
2018-07-03T10:03:31.182Z,24.78
2018-07-03T10:04:31.123Z,24.41
2018-07-03T10:05:31.063Z,24.30
2018-07-03T10:06:30.996Z,24.52
2018-07-03T10:07:30.932Z,24.04
2018-07-03T10:08:30.873Z,23.18
2018-07-03T10:09:30.811Z,22.87
2018-07-03T10:10:30.747Z,22.09
2018-07-03T10:11:30.685Z,24.22
2018-07-03T10:12:30.606Z,24.42
2018-07-03T10:13:30.544Z,24.51
2018-07-03T10:14:30.487Z,25.18
2018-07-03T10:15:30.424Z,24.99
2018-07-03T10:16:30.362Z,25.26
2018-07-03T10:17:30.296Z,26.24
2018-07-03T10:18:30.232Z,26.50
2018-07-03T10:19:30.168Z,27.36
2018-07-03T10:20:30.110Z,27.94
2018-07-03T10:21:30.049Z,28.43
2018-07-03T10:22:29.974Z,28.22
2018-07-03T10:23:29.911Z,29.47
2018-07-03T10:24:29.844Z,28.89
2018-07-03T10:25:29.829Z,28.70
2018-07-03T10:26:29.713Z,27.34
2018-07-03T10:27:29.649Z,27.11
2018-07-03T10:28:29.589Z,28.09
2018-07-03T10:29:29.514Z,29.57
2018-07-03T10:30:29.445Z,29.76
2018-07-03T10:31:29.386Z,29.58
2018-07-03T10:32:29.312Z,28.50
2018-07-03T10:33:29.249Z,26.94
2018-07-03T10:34:29.189Z,27.34
2018-07-03T10:35:29.113Z,26.84
2018-07-03T10:36:29.047Z,27.53
2018-07-03T10:37:28.973Z,28.20
2018-07-03T10:38:28.914Z,27.04
2018-07-03T10:39:28.852Z,26.65
2018-07-03T10:40:28.773Z,26.84
2018-07-03T10:41:28.711Z,28.13
2018-07-03T10:42:28.633Z,27.54
2018-07-03T10:43:28.575Z,26.94
2018-07-03T10:44:28.512Z,27.33
2018-07-03T10:45:28.439Z,28.20
2018-07-03T10:46:28.361Z,27.25
2018-07-03T10:47:28.311Z,28.51
2018-07-03T10:48:28.227Z,27.55
2018-07-03T10:49:28.166Z,27.48
2018-07-03T10:50:28.090Z,26.82
2018-07-03T10:51:28.026Z,26.27
2018-07-03T10:52:27.964Z,24.82
2018-07-03T10:53:27.885Z,25.04
2018-07-03T10:54:27.826Z,23.48
2018-07-03T10:55:27.764Z,22.88
2018-07-03T10:56:27.685Z,23.73
2018-07-03T10:57:27.622Z,24.41
2018-07-03T10:58:27.563Z,23.85
2018-07-03T10:59:27.524Z,24.25
2018-07-03T11:00:27.442Z,24.43
2018-07-03T11:01:27.379Z,23.87
2018-07-03T11:02:27.297Z,23.28
2018-07-03T11:03:27.236Z,23.49
2018-07-03T11:04:27.177Z,23.12
2018-07-03T11:05:27.116Z,23.23
2018-07-03T11:06:27.054Z,22.95
2018-07-03T11:07:26.993Z,21.96
2018-07-03T11:08:26.928Z,22.08
2018-07-03T11:09:26.852Z,22.36
2018-07-03T11:10:26.805Z,21.69
2018-07-03T11:11:26.731Z,21.80
2018-07-03T11:12:26.665Z,21.94
2018-07-03T11:13:26.602Z,22.80
2018-07-03T11:14:26.540Z,23.88
2018-07-03T11:15:26.475Z,23.61
2018-07-03T11:16:26.451Z,23.13
2018-07-03T11:17:26.355Z,23.24
2018-07-03T11:18:26.291Z,22.56
2018-07-03T11:19:26.244Z,23.43
2018-07-03T11:20:26.182Z,22.94
2018-07-03T11:21:26.121Z,22.55
2018-07-03T11:22:26.056Z,22.67
2018-07-03T11:23:25.994Z,21.41
2018-07-03T11:24:25.929Z,22.58
2018-07-03T11:25:25.864Z,21.80
2018-07-03T11:26:25.808Z,21.12
2018-07-03T11:27:25.746Z,20.94
2018-07-03T11:28:25.691Z,19.74
2018-07-03T11:29:25.623Z,21.12
2018-07-03T11:30:25.552Z,22.26
2018-07-03T11:31:25.492Z,23.91
2018-07-03T11:32:25.431Z,23.33
2018-07-03T11:33:25.371Z,22.64
2018-07-03T11:34:25.318Z,21.78
2018-07-03T11:35:25.256Z,20.99
2018-07-03T11:36:25.196Z,20.99
2018-07-03T11:37:25.133Z,21.66
2018-07-03T11:38:25.071Z,22.53
2018-07-03T11:39:25.010Z,21.92
2018-07-03T11:40:24.941Z,22.13
2018-07-03T11:41:24.890Z,21.92
2018-07-03T11:42:24.822Z,22.55
2018-07-03T11:43:24.759Z,21.09
2018-07-03T11:44:24.691Z,20.89
2018-07-03T11:45:24.641Z,20.91
2018-07-03T11:46:24.581Z,20.40
2018-07-03T11:47:24.519Z,21.66
2018-07-03T11:48:24.460Z,21.66
2018-07-03T11:49:24.398Z,21.74
2018-07-03T11:50:24.329Z,21.56
2018-07-03T11:51:24.267Z,20.97
2018-07-03T11:52:24.220Z,21.81
2018-07-03T11:53:24.146Z,23.44
2018-07-03T11:54:24.086Z,24.42
2018-07-03T11:55:24.035Z,24.64
2018-07-03T11:56:23.969Z,24.16
2018-07-03T11:57:23.906Z,22.89
2018-07-03T11:58:23.849Z,22.30
2018-07-03T11:59:23.786Z,22.91
2018-07-03T12:00:23.721Z,22.84
2018-07-03T12:01:23.692Z,21.59
2018-07-03T12:02:23.593Z,20.82
2018-07-03T12:03:23.530Z,19.76
2018-07-03T12:04:23.472Z,19.96
2018-07-03T12:05:23.411Z,20.62
2018-07-03T12:06:23.349Z,20.92
2018-07-03T12:07:23.283Z,20.54
2018-07-03T12:08:23.227Z,19.66
2018-07-03T12:09:23.175Z,19.66
2018-07-03T12:10:23.109Z,19.48
2018-07-03T12:11:23.049Z,19.79
2018-07-03T12:12:22.981Z,19.38
2018-07-03T12:13:22.919Z,19.48
2018-07-03T12:14:22.861Z,19.56
2018-07-03T12:15:22.799Z,20.83
2018-07-03T12:16:22.731Z,20.73
2018-07-03T12:17:22.670Z,20.64
2018-07-03T12:18:22.609Z,20.14
2018-07-03T12:19:22.559Z,20.42
2018-07-03T12:20:22.507Z,21.41
2018-07-03T12:21:22.438Z,20.81
2018-07-03T12:22:22.370Z,20.62
2018-07-03T12:23:22.307Z,20.43
2018-07-03T12:24:22.250Z,20.72
2018-07-03T12:25:22.200Z,21.29
2018-07-03T12:26:22.128Z,21.19
2018-07-03T12:27:22.064Z,21.95
2018-07-03T12:28:21.998Z,22.16
2018-07-03T12:29:21.936Z,21.59
2018-07-03T12:30:21.872Z,21.51
2018-07-03T12:31:21.808Z,20.72
2018-07-03T12:32:21.762Z,20.92
2018-07-03T12:33:21.703Z,20.92
2018-07-03T12:34:21.641Z,20.93
2018-07-03T12:35:21.577Z,21.61
2018-07-03T12:36:21.512Z,22.06
2018-07-03T12:37:21.449Z,23.10
2018-07-03T12:38:21.389Z,22.91
2018-07-03T12:39:21.327Z,23.28
2018-07-03T12:40:21.261Z,23.79
2018-07-03T12:41:21.197Z,23.68
2018-07-03T12:42:21.137Z,22.99
2018-07-03T12:43:21.075Z,22.13
2018-07-03T12:44:21.019Z,23.02
2018-07-03T12:45:20.955Z,23.68
2018-07-03T12:46:20.889Z,23.11
2018-07-03T12:47:20.836Z,22.74
2018-07-03T12:48:20.768Z,21.98
2018-07-03T12:49:20.716Z,21.81
2018-07-03T12:50:20.653Z,21.01
2018-07-03T12:51:20.601Z,21.58